createdAt,value
2022-09-23T00:00:13.291Z,89.10
2022-09-23T00:00:45.533Z,89.02
2022-09-23T00:01:18.121Z,88.60
2022-09-23T00:01:49.760Z,88.52
2022-09-23T00:02:22.625Z,89.02
2022-09-23T00:02:54.262Z,89.36
2022-09-23T00:03:28.423Z,89.34
2022-09-23T00:04:00.535Z,89.47
2022-09-23T00:04:32.148Z,89.76
2022-09-23T00:05:03.969Z,89.55
2022-09-23T00:05:37.963Z,89.20
2022-09-23T00:06:12.617Z,89.28
2022-09-23T00:06:44.139Z,89.19
2022-09-23T00:07:16.377Z,89.92
2022-09-23T00:07:49.172Z,89.48
2022-09-23T00:08:20.703Z,89.19
2022-09-23T00:08:52.631Z,89.30
2022-09-23T00:09:24.409Z,89.32
2022-09-23T00:09:56.081Z,89.12
2022-09-23T00:10:32.861Z,88.78
2022-09-23T00:11:07.849Z,88.67
2022-09-23T00:11:39.371Z,88.90
2022-09-23T00:12:10.957Z,88.97
2022-09-23T00:12:42.465Z,89.05
2022-09-23T00:13:13.969Z,88.96
2022-09-23T00:13:47.265Z,88.79
2022-09-23T00:14:18.911Z,88.83
2022-09-23T00:14:50.423Z,88.77
2022-09-23T00:15:22.295Z,88.69
2022-09-23T00:15:53.867Z,88.89
2022-09-23T00:16:29.261Z,89.24
2022-09-23T00:17:00.961Z,89.17
2022-09-23T00:17:32.777Z,89.66
2022-09-23T00:18:04.329Z,89.51
2022-09-23T00:18:36.486Z,89.56
2022-09-23T00:19:08.054Z,89.63
2022-09-23T00:19:40.342Z,89.60
2022-09-23T00:20:11.993Z,89.88
2022-09-23T00:20:44.756Z,90.19
2022-09-23T00:21:17.101Z,90.68
2022-09-23T00:21:48.681Z,90.42
2022-09-23T00:22:20.262Z,90.23
2022-09-23T00:22:53.149Z,89.94
2022-09-23T00:23:24.713Z,89.95
2022-09-23T00:23:56.255Z,90.48
2022-09-23T00:24:32.266Z,90.60
2022-09-23T00:25:07.693Z,91.44
2022-09-23T00:25:39.329Z,91.79
2022-09-23T00:26:15.787Z,92.10
2022-09-23T00:26:47.327Z,91.78
2022-09-23T00:27:21.049Z,91.42
2022-09-23T00:27:52.615Z,91.20
2022-09-23T00:28:24.595Z,90.91
2022-09-23T00:28:56.157Z,90.56
2022-09-23T00:29:27.685Z,90.20
2022-09-23T00:29:59.804Z,90.47
2022-09-23T00:30:32.409Z,90.49
2022-09-23T00:31:09.112Z,90.64
2022-09-23T00:31:40.747Z,90.54
2022-09-23T00:32:12.258Z,90.42
2022-09-23T00:32:43.769Z,90.41
2022-09-23T00:33:15.314Z,90.37
2022-09-23T00:33:46.982Z,90.16
2022-09-23T00:34:18.497Z,90.11
2022-09-23T00:34:50.027Z,90.24
2022-09-23T00:35:21.598Z,90.57
2022-09-23T00:35:59.251Z,90.46
2022-09-23T00:36:32.365Z,90.23
2022-09-23T00:37:03.986Z,90.23
2022-09-23T00:37:35.503Z,89.89
2022-09-23T00:38:07.242Z,90.00
2022-09-23T00:38:39.127Z,89.89
2022-09-23T00:39:10.634Z,89.91
2022-09-23T00:39:42.278Z,90.31
2022-09-23T00:40:13.905Z,90.16
2022-09-23T00:40:46.256Z,90.26
2022-09-23T00:41:18.209Z,90.58
2022-09-23T00:41:50.446Z,90.78
2022-09-23T00:42:24.249Z,90.95
2022-09-23T00:42:55.758Z,90.71
2022-09-23T00:43:45.466Z,90.94
2022-09-23T00:44:42.012Z,90.96
2022-09-23T00:45:14.054Z,91.14
2022-09-23T00:45:48.866Z,91.63
2022-09-23T00:46:25.113Z,91.44
2022-09-23T00:46:57.290Z,91.09
2022-09-23T00:47:39.418Z,90.89
2022-09-23T00:48:17.017Z,90.69
2022-09-23T00:48:54.848Z,90.39
2022-09-23T00:49:29.914Z,90.30
2022-09-23T00:50:27.413Z,90.10
2022-09-23T00:50:58.945Z,90.09
2022-09-23T00:51:34.766Z,90.41
2022-09-23T00:52:17.918Z,90.53
2022-09-23T00:52:52.425Z,90.60
2022-09-23T00:53:26.732Z,90.47
2022-09-23T00:53:58.494Z,90.46
2022-09-23T00:54:31.181Z,90.45
2022-09-23T00:55:07.429Z,90.44
2022-09-23T00:55:43.881Z,90.29
2022-09-23T00:56:16.151Z,90.59
2022-09-23T00:56:48.110Z,90.85
2022-09-23T00:57:20.201Z,90.33
2022-09-23T00:57:55.841Z,90.42
2022-09-23T00:58:31.793Z,90.25
2022-09-23T00:59:03.679Z,90.25
2022-09-23T00:59:35.825Z,90.32
2022-09-23T01:00:08.221Z,90.33
2022-09-23T01:00:39.720Z,90.19
2022-09-23T01:01:14.022Z,90.39
2022-09-23T01:01:46.510Z,90.34
2022-09-23T01:02:21.124Z,91.11
2022-09-23T01:02:52.889Z,91.41
2022-09-23T01:03:24.486Z,91.54
2022-09-23T01:03:57.618Z,91.10
2022-09-23T01:04:30.003Z,90.83
2022-09-23T01:05:05.026Z,90.87
2022-09-23T01:05:36.798Z,90.58
2022-09-23T01:06:08.938Z,90.80
2022-09-23T01:06:41.439Z,90.91
2022-09-23T01:07:13.726Z,90.80
2022-09-23T01:07:45.962Z,90.90
2022-09-23T01:08:18.020Z,91.07
2022-09-23T01:08:50.205Z,91.08
2022-09-23T01:09:23.167Z,90.94
2022-09-23T01:09:54.697Z,90.86
2022-09-23T01:10:33.010Z,91.03
2022-09-23T01:11:23.957Z,90.95
2022-09-23T01:12:07.314Z,90.91
2022-09-23T01:12:51.113Z,91.19
2022-09-23T01:13:28.566Z,91.18
2022-09-23T01:14:22.441Z,92.00
2022-09-23T01:15:09.237Z,92.40
2022-09-23T01:15:48.524Z,91.85
2022-09-23T01:16:41.175Z,91.40
2022-09-23T01:17:18.492Z,91.21
2022-09-23T01:18:15.538Z,90.98
2022-09-23T01:19:11.169Z,90.94
2022-09-23T01:20:29.044Z,90.53
2022-09-23T01:21:15.272Z,90.55
2022-09-23T01:22:11.615Z,90.78
2022-09-23T01:22:58.360Z,90.80
2022-09-23T01:23:44.964Z,90.76
2022-09-23T01:24:35.383Z,90.88
2022-09-23T01:25:24.947Z,90.83
2022-09-23T01:26:23.863Z,91.05
2022-09-23T01:27:19.392Z,90.85
2022-09-23T01:28:09.406Z,90.90
2022-09-23T01:29:06.230Z,91.45
2022-09-23T01:29:49.940Z,91.04
2022-09-23T01:30:33.707Z,91.10
2022-09-23T01:31:28.252Z,91.21
2022-09-23T01:32:17.955Z,91.54
2022-09-23T01:33:09.935Z,91.06
2022-09-23T01:34:10.166Z,91.25
2022-09-23T01:34:47.808Z,92.61
2022-09-23T01:35:43.654Z,91.74
2022-09-23T01:36:33.782Z,91.83
2022-09-23T01:37:13.098Z,92.36
2022-09-23T01:38:19.854Z,92.04
2022-09-23T01:38:51.320Z,92.47
2022-09-23T01:39:42.917Z,92.02
2022-09-23T01:40:22.858Z,92.29
2022-09-23T01:41:00.948Z,92.37
2022-09-23T01:42:17.330Z,92.38
2022-09-23T01:43:05.930Z,92.93
2022-09-23T01:43:47.808Z,92.68
2022-09-23T01:44:34.898Z,92.34
2022-09-23T01:45:17.709Z,92.09
2022-09-23T01:45:54.426Z,92.08
2022-09-23T01:46:40.093Z,92.08
2022-09-23T01:47:17.541Z,92.18
2022-09-23T01:47:55.595Z,92.13
2022-09-23T01:48:37.205Z,92.10
2022-09-23T01:49:16.370Z,92.20
2022-09-23T01:49:56.241Z,91.97
2022-09-23T01:50:56.292Z,92.55
2022-09-23T01:51:46.701Z,92.43
2022-09-23T01:52:29.237Z,92.33
2022-09-23T01:53:07.086Z,92.39
2022-09-23T01:53:59.583Z,92.53
2022-09-23T01:54:39.892Z,92.51
2022-09-23T01:55:24.660Z,92.43
2022-09-23T01:56:02.124Z,92.48
2022-09-23T01:56:38.712Z,92.59
2022-09-23T01:57:16.044Z,92.61
2022-09-23T01:58:02.918Z,92.49
2022-09-23T01:58:41.876Z,92.51
2022-09-23T01:59:21.574Z,92.61
2022-09-23T02:00:00.622Z,92.64
2022-09-23T02:01:17.613Z,92.88
2022-09-23T02:02:19.349Z,92.91
2022-09-23T02:03:07.566Z,93.44
2022-09-23T02:04:36.684Z,93.04
2022-09-23T02:05:17.631Z,92.95
2022-09-23T02:05:54.009Z,92.86
2022-09-23T02:06:30.078Z,92.58
2022-09-23T02:07:15.186Z,92.46
2022-09-23T02:08:11.173Z,92.84
2022-09-23T02:08:56.509Z,92.80
2022-09-23T02:09:37.301Z,92.77
2022-09-23T02:10:30.514Z,92.85
2022-09-23T02:11:16.529Z,92.70
2022-09-23T02:11:52.487Z,92.80
2022-09-23T02:12:28.586Z,92.80
2022-09-23T02:13:13.829Z,92.80
2022-09-23T02:13:59.934Z,92.90
2022-09-23T02:14:37.515Z,92.95
2022-09-23T02:15:14.462Z,93.14
2022-09-23T02:15:53.209Z,93.07
2022-09-23T02:16:36.018Z,92.92
2022-09-23T02:17:11.249Z,92.69
2022-09-23T02:17:49.138Z,92.66
2022-09-23T02:18:28.844Z,92.80
2022-09-23T02:19:06.891Z,92.82
2022-09-23T02:19:54.058Z,92.81
2022-09-23T02:20:30.214Z,92.79
2022-09-23T02:21:06.490Z,92.80
2022-09-23T02:21:47.304Z,92.86
2022-09-23T02:22:25.853Z,92.96
2022-09-23T02:23:07.597Z,93.14
2022-09-23T02:23:45.974Z,93.18
2022-09-23T02:24:21.740Z,93.10
2022-09-23T02:24:54.706Z,92.92
2022-09-23T02:25:35.186Z,92.76
2022-09-23T02:26:51.402Z,92.93
2022-09-23T02:27:46.460Z,92.86
2022-09-23T02:28:25.396Z,92.72
2022-09-23T02:29:18.466Z,92.68
2022-09-23T02:30:14.208Z,92.56
2022-09-23T02:30:51.981Z,92.44
2022-09-23T02:31:53.691Z,92.56
2022-09-23T02:32:55.221Z,92.74
2022-09-23T02:34:12.776Z,93.11
2022-09-23T02:35:10.129Z,93.84
2022-09-23T02:35:52.642Z,93.36
2022-09-23T02:36:38.180Z,93.51
2022-09-23T02:37:47.575Z,93.52
2022-09-23T02:38:23.526Z,93.50
2022-09-23T02:39:05.156Z,93.17
2022-09-23T02:40:11.808Z,93.04
2022-09-23T02:41:02.416Z,93.30
2022-09-23T02:41:44.690Z,93.08
2022-09-23T02:42:22.035Z,93.08
2022-09-23T02:43:19.887Z,93.12
2022-09-23T02:44:00.516Z,93.47
2022-09-23T02:44:32.959Z,93.04
2022-09-23T02:45:05.405Z,92.81
2022-09-23T02:45:38.992Z,93.06
2022-09-23T02:46:10.772Z,92.65
2022-09-23T02:46:45.482Z,92.48
2022-09-23T02:47:21.669Z,92.93
2022-09-23T02:48:00.566Z,93.25
2022-09-23T02:48:42.401Z,93.49
2022-09-23T02:49:19.092Z,93.32
2022-09-23T02:49:50.726Z,93.38
2022-09-23T02:50:22.617Z,93.29
2022-09-23T02:50:54.431Z,93.28
2022-09-23T02:51:25.970Z,93.08
2022-09-23T02:52:01.282Z,93.19
2022-09-23T02:52:33.317Z,93.04
2022-09-23T02:53:06.273Z,93.06
2022-09-23T02:53:38.156Z,93.45
2022-09-23T02:54:14.949Z,93.40
2022-09-23T02:54:46.610Z,93.51
2022-09-23T02:55:23.393Z,93.74
2022-09-23T02:55:54.899Z,93.41
2022-09-23T02:56:26.409Z,93.27
2022-09-23T02:57:01.157Z,93.02
2022-09-23T02:57:32.810Z,93.04
2022-09-23T02:58:05.470Z,92.93
2022-09-23T02:58:37.082Z,92.68
2022-09-23T02:59:10.253Z,92.59
2022-09-23T02:59:41.793Z,92.48
2022-09-23T03:00:13.922Z,92.68
2022-09-23T03:01:15.896Z,92.78
2022-09-23T03:02:04.292Z,92.95
2022-09-23T03:03:13.330Z,93.02
2022-09-23T03:03:48.937Z,93.21
2022-09-23T03:04:32.034Z,93.10
2022-09-23T03:05:23.911Z,92.93
2022-09-23T03:05:58.728Z,92.73
2022-09-23T03:06:41.574Z,92.74
2022-09-23T03:07:32.393Z,93.19
2022-09-23T03:08:19.265Z,93.24
2022-09-23T03:09:00.656Z,93.32
2022-09-23T03:09:40.037Z,93.53
2022-09-23T03:10:41.313Z,93.67
2022-09-23T03:11:13.646Z,93.22
2022-09-23T03:11:52.004Z,93.19
2022-09-23T03:12:36.055Z,92.96
2022-09-23T03:13:17.224Z,92.94
2022-09-23T03:13:54.344Z,93.15
2022-09-23T03:14:53.786Z,93.08
2022-09-23T03:15:30.081Z,93.02
2022-09-23T03:16:07.353Z,92.89
2022-09-23T03:16:47.977Z,92.80
2022-09-23T03:17:46.776Z,92.50
2022-09-23T03:18:41.882Z,92.69
2022-09-23T03:19:29.043Z,93.01
2022-09-23T03:20:03.430Z,92.97
2022-09-23T03:20:42.584Z,92.78
2022-09-23T03:21:39.074Z,92.80
2022-09-23T03:22:17.451Z,92.61
2022-09-23T03:22:54.596Z,92.79
2022-09-23T03:23:35.799Z,92.77
2022-09-23T03:24:10.814Z,93.01
2022-09-23T03:24:44.879Z,92.81
2022-09-23T03:25:19.832Z,92.85
2022-09-23T03:25:54.570Z,92.99
2022-09-23T03:26:33.486Z,92.90
2022-09-23T03:27:13.783Z,92.57
2022-09-23T03:27:45.625Z,92.27
2022-09-23T03:28:20.258Z,92.71
2022-09-23T03:28:53.902Z,92.56
2022-09-23T03:29:25.856Z,92.41
2022-09-23T03:29:57.835Z,92.62
2022-09-23T03:30:31.694Z,92.59
2022-09-23T03:31:04.633Z,92.75
2022-09-23T03:31:39.077Z,92.75
2022-09-23T03:32:10.686Z,93.09
2022-09-23T03:32:47.106Z,93.02
2022-09-23T03:33:28.417Z,92.82
2022-09-23T03:34:05.435Z,92.90
2022-09-23T03:34:38.289Z,92.91
2022-09-23T03:35:10.190Z,93.19
2022-09-23T03:36:07.701Z,93.19
2022-09-23T03:36:52.117Z,93.65
2022-09-23T03:37:31.395Z,93.70
2022-09-23T03:38:16.246Z,93.64
2022-09-23T03:38:51.537Z,94.01
2022-09-23T03:39:42.604Z,93.83
2022-09-23T03:40:40.174Z,94.01
2022-09-23T03:41:16.990Z,94.21
2022-09-23T03:41:52.739Z,94.20
2022-09-23T03:42:28.826Z,94.03
2022-09-23T03:43:02.614Z,94.06
2022-09-23T03:43:38.743Z,93.62
2022-09-23T03:44:11.926Z,93.50
2022-09-23T03:44:45.596Z,93.47
2022-09-23T03:45:21.941Z,93.24
2022-09-23T03:45:57.387Z,93.50
2022-09-23T03:46:30.231Z,93.10
2022-09-23T03:47:02.926Z,93.13
2022-09-23T03:47:35.106Z,93.03
2022-09-23T03:48:07.151Z,92.90
2022-09-23T03:48:38.686Z,92.81
2022-09-23T03:49:17.205Z,92.79
2022-09-23T03:49:49.847Z,93.05
2022-09-23T03:50:21.362Z,92.96
2022-09-23T03:50:53.167Z,93.09
2022-09-23T03:51:24.771Z,93.11
2022-09-23T03:51:56.390Z,92.89
2022-09-23T03:52:28.555Z,92.94
2022-09-23T03:53:00.118Z,93.06
2022-09-23T03:53:31.633Z,93.16
2022-09-23T03:54:03.131Z,93.05
2022-09-23T03:54:34.971Z,93.02
2022-09-23T03:55:07.626Z,92.81
2022-09-23T03:55:39.353Z,92.75
2022-09-23T03:56:11.702Z,92.69
2022-09-23T03:56:44.207Z,92.70
2022-09-23T03:57:15.759Z,93.03
2022-09-23T03:57:47.980Z,93.15
2022-09-23T03:58:19.495Z,92.86
2022-09-23T03:58:51.114Z,92.71
2022-09-23T03:59:22.962Z,92.51
2022-09-23T03:59:54.463Z,92.28
2022-09-23T04:00:26.101Z,92.22
2022-09-23T04:00:58.816Z,92.26
2022-09-23T04:01:30.412Z,92.33
2022-09-23T04:02:02.646Z,92.57
2022-09-23T04:02:34.678Z,92.63
2022-09-23T04:03:10.910Z,92.65
2022-09-23T04:03:43.412Z,92.51
2022-09-23T04:04:14.910Z,92.64
2022-09-23T04:04:46.538Z,92.86
2022-09-23T04:05:18.228Z,92.86
2022-09-23T04:05:49.868Z,93.14
2022-09-23T04:06:22.389Z,92.92
2022-09-23T04:06:56.989Z,92.99
2022-09-23T04:07:28.621Z,93.04
2022-09-23T04:08:00.174Z,93.15
2022-09-23T04:08:31.709Z,93.12
2022-09-23T04:09:03.602Z,93.02
2022-09-23T04:09:35.712Z,93.06
2022-09-23T04:10:07.678Z,93.26
2022-09-23T04:10:41.914Z,93.30
2022-09-23T04:11:13.452Z,93.26
2022-09-23T04:11:44.948Z,93.33
2022-09-23T04:12:17.232Z,93.25
2022-09-23T04:12:48.848Z,93.38
2022-09-23T04:13:20.364Z,93.39
2022-09-23T04:13:51.853Z,93.31
2022-09-23T04:14:24.224Z,93.25
2022-09-23T04:14:55.789Z,93.21
2022-09-23T04:15:27.300Z,93.33
2022-09-23T04:15:59.121Z,93.05
2022-09-23T04:16:30.805Z,92.98
2022-09-23T04:17:02.767Z,93.04
2022-09-23T04:17:34.270Z,92.83
2022-09-23T04:18:05.833Z,92.74
2022-09-23T04:18:37.637Z,92.75
2022-09-23T04:19:11.734Z,92.79
2022-09-23T04:19:45.040Z,92.98
2022-09-23T04:20:17.298Z,93.09
2022-09-23T04:20:49.165Z,93.20
2022-09-23T04:21:20.694Z,93.23
2022-09-23T04:21:52.180Z,93.43
2022-09-23T04:22:23.823Z,93.59
2022-09-23T04:22:56.266Z,93.46
2022-09-23T04:23:28.018Z,93.59
2022-09-23T04:23:59.554Z,93.59
2022-09-23T04:24:31.098Z,93.76
2022-09-23T04:25:02.615Z,93.77
2022-09-23T04:25:34.206Z,93.85
2022-09-23T04:26:06.121Z,94.07
2022-09-23T04:26:38.892Z,94.13
2022-09-23T04:27:10.394Z,93.79
2022-09-23T04:27:41.890Z,93.89
2022-09-23T04:28:13.804Z,93.64
2022-09-23T04:28:45.338Z,93.50
2022-09-23T04:29:16.847Z,93.37
2022-09-23T04:29:48.368Z,93.32
2022-09-23T04:30:19.862Z,93.63
2022-09-23T04:30:51.454Z,93.69
2022-09-23T04:31:25.685Z,93.71
2022-09-23T04:31:57.822Z,93.75
2022-09-23T04:32:29.699Z,93.74
2022-09-23T04:33:01.219Z,93.62
2022-09-23T04:33:33.456Z,93.63
2022-09-23T04:34:04.981Z,93.58
2022-09-23T04:34:36.495Z,93.68
2022-09-23T04:35:08.335Z,93.72
2022-09-23T04:35:40.818Z,93.66
2022-09-23T04:36:12.324Z,93.75
2022-09-23T04:36:48.912Z,93.51
2022-09-23T04:37:20.434Z,93.41
2022-09-23T04:37:51.973Z,93.46
2022-09-23T04:38:23.507Z,93.11
2022-09-23T04:38:55.069Z,93.06
2022-09-23T04:39:26.631Z,93.04
2022-09-23T04:39:58.185Z,92.81
2022-09-23T04:40:29.734Z,92.92
2022-09-23T04:41:01.356Z,93.04
2022-09-23T04:41:32.896Z,92.83
2022-09-23T04:42:04.453Z,92.73
2022-09-23T04:42:35.960Z,92.85
2022-09-23T04:43:11.678Z,92.94
2022-09-23T04:43:45.437Z,92.83
2022-09-23T04:44:17.106Z,92.90
2022-09-23T04:44:48.753Z,93.07
2022-09-23T04:45:20.353Z,93.31
2022-09-23T04:46:02.713Z,93.01
2022-09-23T04:46:34.624Z,92.97
2022-09-23T04:47:06.433Z,93.02
2022-09-23T04:47:37.979Z,93.08
2022-09-23T04:48:10.741Z,93.10
2022-09-23T04:48:43.028Z,93.19
2022-09-23T04:49:16.250Z,93.21
2022-09-23T04:49:47.734Z,93.34
2022-09-23T04:50:19.282Z,93.08
2022-09-23T04:50:50.803Z,93.05
2022-09-23T04:51:24.832Z,93.14
2022-09-23T04:51:56.412Z,93.03
2022-09-23T04:52:29.916Z,93.32
2022-09-23T04:53:02.372Z,93.11
2022-09-23T04:53:35.787Z,92.97
2022-09-23T04:54:07.277Z,93.22
2022-09-23T04:54:38.850Z,93.34
2022-09-23T04:55:11.412Z,93.30
2022-09-23T04:55:43.560Z,93.18
2022-09-23T04:56:18.543Z,93.15
2022-09-23T04:56:50.066Z,93.19
2022-09-23T04:57:21.550Z,93.40
2022-09-23T04:57:53.051Z,93.52
2022-09-23T04:58:25.326Z,93.65
2022-09-23T04:58:58.185Z,93.39
2022-09-23T04:59:30.270Z,93.50
2022-09-23T05:00:01.997Z,93.43
2022-09-23T05:00:33.583Z,93.31
2022-09-23T05:01:10.465Z,93.46
2022-09-23T05:01:42.094Z,93.55
2022-09-23T05:02:13.815Z,93.32
2022-09-23T05:02:46.630Z,93.48
2022-09-23T05:03:18.127Z,93.33
2022-09-23T05:03:49.638Z,93.12
2022-09-23T05:04:21.182Z,93.06
2022-09-23T05:04:52.730Z,93.08
2022-09-23T05:05:24.263Z,93.11
2022-09-23T05:05:59.925Z,93.22
2022-09-23T05:06:34.517Z,93.14
2022-09-23T05:07:06.043Z,93.20
2022-09-23T05:07:37.590Z,93.20
2022-09-23T05:08:09.126Z,93.13
2022-09-23T05:08:41.919Z,93.15
2022-09-23T05:09:17.603Z,93.26
2022-09-23T05:09:49.086Z,93.15
2022-09-23T05:10:20.597Z,93.25
2022-09-23T05:10:59.947Z,93.56
2022-09-23T05:11:31.872Z,93.55
2022-09-23T05:12:03.561Z,93.51
2022-09-23T05:12:35.102Z,93.10
2022-09-23T05:13:06.581Z,93.04
2022-09-23T05:13:38.120Z,93.24
2022-09-23T05:14:10.027Z,93.49
2022-09-23T05:14:41.555Z,93.49
2022-09-23T05:15:16.178Z,93.49
2022-09-23T05:15:47.868Z,93.41
2022-09-23T05:16:20.704Z,93.44
2022-09-23T05:16:52.509Z,93.41
2022-09-23T05:17:24.014Z,93.45
2022-09-23T05:17:59.137Z,93.18
2022-09-23T05:18:32.089Z,92.96
2022-09-23T05:19:04.043Z,93.14
2022-09-23T05:19:35.536Z,93.16
2022-09-23T05:20:07.700Z,93.43
2022-09-23T05:20:39.418Z,93.56
2022-09-23T05:21:13.446Z,93.64
2022-09-23T05:21:45.021Z,93.51
2022-09-23T05:22:16.568Z,93.26
2022-09-23T05:22:48.072Z,93.09
2022-09-23T05:23:19.693Z,92.65
2022-09-23T05:23:56.497Z,92.38
2022-09-23T05:24:28.243Z,92.74
2022-09-23T05:25:02.245Z,92.34
2022-09-23T05:25:38.225Z,92.55
2022-09-23T05:26:12.312Z,92.32
2022-09-23T05:26:43.819Z,92.64
2022-09-23T05:27:15.657Z,92.66
2022-09-23T05:27:47.148Z,92.42
2022-09-23T05:28:20.114Z,92.35
2022-09-23T05:28:52.654Z,92.31
2022-09-23T05:29:24.137Z,92.07
2022-09-23T05:29:55.659Z,91.34
2022-09-23T05:30:27.163Z,90.73
2022-09-23T05:31:04.356Z,90.43
2022-09-23T05:31:36.930Z,90.42
2022-09-23T05:32:08.467Z,91.05
2022-09-23T05:32:39.984Z,91.42
2022-09-23T05:33:12.004Z,91.41
2022-09-23T05:33:46.063Z,91.79
2022-09-23T05:34:18.700Z,92.08
2022-09-23T05:34:50.201Z,91.96
2022-09-23T05:35:21.955Z,92.13
2022-09-23T05:35:53.448Z,92.62
2022-09-23T05:36:26.871Z,92.20
2022-09-23T05:36:58.384Z,92.25
2022-09-23T05:37:29.868Z,92.86
2022-09-23T05:38:01.373Z,92.83
2022-09-23T05:38:33.981Z,92.83
2022-09-23T05:39:06.657Z,92.77
2022-09-23T05:39:38.390Z,92.86
2022-09-23T05:40:10.115Z,92.76
2022-09-23T05:40:41.853Z,92.60
2022-09-23T05:41:14.148Z,92.62
2022-09-23T05:41:46.443Z,92.77
2022-09-23T05:42:18.276Z,92.59
2022-09-23T05:42:50.799Z,92.41
2022-09-23T05:43:22.685Z,92.41
2022-09-23T05:43:55.485Z,92.36
2022-09-23T05:44:27.013Z,92.63
2022-09-23T05:44:58.523Z,92.57
2022-09-23T05:45:30.013Z,92.48
2022-09-23T05:46:12.574Z,92.49
2022-09-23T05:46:44.363Z,92.60
2022-09-23T05:47:15.965Z,92.75
2022-09-23T05:47:47.467Z,92.63
2022-09-23T05:48:19.031Z,92.74
2022-09-23T05:48:51.182Z,92.55
2022-09-23T05:49:37.684Z,92.23
2022-09-23T05:50:14.222Z,92.46
2022-09-23T05:50:52.400Z,92.77
2022-09-23T05:51:30.647Z,92.72
2022-09-23T05:52:02.953Z,92.66
2022-09-23T05:52:34.816Z,92.80
2022-09-23T05:53:06.323Z,92.43
2022-09-23T05:53:38.119Z,92.26
2022-09-23T05:54:09.761Z,92.53
2022-09-23T05:54:41.290Z,92.66
2022-09-23T05:55:12.825Z,92.39
2022-09-23T05:55:45.545Z,92.27
2022-09-23T05:56:18.847Z,92.17
2022-09-23T05:56:50.343Z,92.42
2022-09-23T05:57:21.915Z,92.27
2022-09-23T05:57:53.603Z,92.31
2022-09-23T05:58:25.562Z,92.23
2022-09-23T05:59:00.396Z,92.08
2022-09-23T05:59:32.729Z,91.64
2022-09-23T06:00:04.774Z,91.28
2022-09-23T06:00:36.277Z,91.39
2022-09-23T06:01:18.126Z,91.36
2022-09-23T06:01:52.127Z,91.20
2022-09-23T06:02:27.249Z,91.41
2022-09-23T06:02:58.828Z,91.33
2022-09-23T06:03:30.339Z,91.27
2022-09-23T06:04:04.041Z,91.04
2022-09-23T06:04:35.531Z,90.89
2022-09-23T06:05:07.265Z,90.84
2022-09-23T06:05:38.776Z,90.74
2022-09-23T06:06:14.573Z,91.03
2022-09-23T06:06:46.169Z,91.22
2022-09-23T06:07:17.730Z,91.40
2022-09-23T06:07:49.285Z,91.35
2022-09-23T06:08:21.867Z,91.33
2022-09-23T06:08:53.656Z,90.97
2022-09-23T06:09:25.153Z,90.92
2022-09-23T06:09:56.641Z,90.71
2022-09-23T06:10:28.363Z,90.46
2022-09-23T06:11:07.658Z,90.67
2022-09-23T06:11:40.002Z,90.27
2022-09-23T06:12:14.082Z,90.21
2022-09-23T06:12:45.567Z,90.27
2022-09-23T06:13:17.140Z,90.06
2022-09-23T06:13:49.349Z,90.30
2022-09-23T06:14:20.880Z,90.37
2022-09-23T06:14:52.966Z,90.51
2022-09-23T06:15:24.522Z,90.16
2022-09-23T06:15:58.183Z,89.88
2022-09-23T06:16:32.698Z,89.68
2022-09-23T06:17:05.542Z,89.98
2022-09-23T06:17:37.041Z,89.78
2022-09-23T06:18:08.545Z,89.86
2022-09-23T06:18:41.543Z,89.57
2022-09-23T06:19:13.031Z,89.86
2022-09-23T06:19:44.523Z,89.53
2022-09-23T06:20:16.307Z,89.55
2022-09-23T06:20:48.215Z,89.46
2022-09-23T06:21:19.983Z,89.41
2022-09-23T06:21:51.482Z,89.15
2022-09-23T06:22:24.754Z,89.02
2022-09-23T06:23:02.400Z,89.45
2022-09-23T06:23:36.514Z,89.35
2022-09-23T06:24:09.431Z,89.18
2022-09-23T06:24:40.971Z,89.09
2022-09-23T06:25:12.949Z,88.86
2022-09-23T06:25:44.466Z,88.98
2022-09-23T06:26:16.753Z,89.25
2022-09-23T06:26:48.417Z,88.61
2022-09-23T06:27:20.131Z,88.62
2022-09-23T06:27:55.777Z,88.88
2022-09-23T06:28:40.392Z,89.03
2022-09-23T06:29:12.319Z,89.27
2022-09-23T06:29:43.934Z,88.89
2022-09-23T06:30:16.874Z,88.47
2022-09-23T06:30:49.425Z,88.35
2022-09-23T06:31:21.015Z,88.79
2022-09-23T06:31:52.594Z,89.12
2022-09-23T06:32:24.144Z,88.27
2022-09-23T06:32:57.914Z,87.85
2022-09-23T06:33:36.746Z,88.20
2022-09-23T06:34:14.177Z,88.36
2022-09-23T06:34:51.417Z,88.42
2022-09-23T06:35:27.865Z,88.11
2022-09-23T06:36:00.922Z,87.84
2022-09-23T06:36:42.403Z,87.86
2022-09-23T06:37:20.285Z,88.14
2022-09-23T06:37:53.657Z,88.11
2022-09-23T06:38:26.467Z,87.61
2022-09-23T06:38:58.033Z,87.51
2022-09-23T06:39:30.081Z,87.68
2022-09-23T06:40:01.977Z,87.27
2022-09-23T06:40:33.559Z,86.86
2022-09-23T06:41:05.115Z,86.65
2022-09-23T06:41:36.686Z,86.57
2022-09-23T06:42:08.257Z,86.15
2022-09-23T06:42:41.314Z,86.03
2022-09-23T06:43:12.801Z,85.68
2022-09-23T06:43:44.343Z,85.18
2022-09-23T06:44:16.114Z,84.06
2022-09-23T06:44:47.615Z,82.71
2022-09-23T06:45:19.135Z,82.49
2022-09-23T06:45:54.993Z,81.26
2022-09-23T06:46:26.575Z,80.21
2022-09-23T06:46:58.261Z,79.53
2022-09-23T06:47:29.837Z,77.67
2022-09-23T06:48:06.071Z,76.71
2022-09-23T06:48:37.617Z,76.50
2022-09-23T06:49:09.263Z,74.08
2022-09-23T06:49:41.145Z,71.86
2022-09-23T06:50:12.645Z,69.79
2022-09-23T06:50:44.335Z,69.37
2022-09-23T06:51:19.273Z,67.24
2022-09-23T06:51:50.854Z,64.46
2022-09-23T06:52:22.338Z,63.51
2022-09-23T06:52:56.261Z,61.32
2022-09-23T06:53:30.007Z,59.61
2022-09-23T06:54:01.539Z,59.57
2022-09-23T06:54:33.110Z,58.54
2022-09-23T06:55:05.208Z,57.15
2022-09-23T06:55:36.708Z,56.95
2022-09-23T06:56:11.160Z,55.19
2022-09-23T06:56:44.325Z,54.34
2022-09-23T06:57:15.845Z,53.02
2022-09-23T06:57:47.335Z,52.95
2022-09-23T06:58:18.833Z,52.70
2022-09-23T06:58:52.299Z,52.35
2022-09-23T06:59:24.986Z,52.41
2022-09-23T06:59:59.112Z,51.57
2022-09-23T07:00:30.644Z,52.24
2022-09-23T07:01:03.758Z,50.99
2022-09-23T07:01:35.522Z,50.91
2022-09-23T07:02:08.984Z,50.50
2022-09-23T07:02:42.203Z,51.26
2022-09-23T07:03:13.841Z,51.98
2022-09-23T07:03:48.241Z,51.45
2022-09-23T07:04:19.813Z,50.97
2022-09-23T07:04:51.617Z,51.53
2022-09-23T07:05:23.195Z,50.92
2022-09-23T07:05:56.236Z,51.08
2022-09-23T07:06:27.801Z,50.21
2022-09-23T07:06:59.432Z,50.31
2022-09-23T07:07:31.502Z,50.01
2022-09-23T07:08:03.338Z,49.56
2022-09-23T07:08:35.948Z,49.37
2022-09-23T07:09:08.832Z,48.95
2022-09-23T07:09:40.451Z,48.62
2022-09-23T07:10:12.409Z,47.33
2022-09-23T07:10:51.273Z,46.95
2022-09-23T07:11:23.078Z,46.44
2022-09-23T07:11:54.728Z,45.93
2022-09-23T07:12:26.259Z,46.90
2022-09-23T07:13:02.068Z,47.05
2022-09-23T07:13:34.278Z,47.45
2022-09-23T07:14:05.781Z,46.79
2022-09-23T07:14:37.297Z,45.88
2022-09-23T07:15:09.806Z,45.43
2022-09-23T07:15:41.547Z,45.83
2022-09-23T07:16:13.084Z,45.60
2022-09-23T07:16:44.665Z,45.89
2022-09-23T07:17:16.171Z,46.30
2022-09-23T07:17:47.655Z,45.76
2022-09-23T07:18:22.281Z,46.37
2022-09-23T07:18:54.678Z,46.42
2022-09-23T07:19:26.193Z,45.85
2022-09-23T07:19:58.469Z,46.85
2022-09-23T07:20:29.961Z,46.32
2022-09-23T07:21:15.212Z,46.92
2022-09-23T07:21:47.020Z,46.20
2022-09-23T07:22:19.027Z,46.14
2022-09-23T07:22:52.180Z,46.85
2022-09-23T07:23:24.176Z,47.60
2022-09-23T07:23:58.091Z,46.91
2022-09-23T07:24:29.669Z,47.31
2022-09-23T07:25:01.150Z,46.51
2022-09-23T07:25:34.126Z,46.33
2022-09-23T07:26:07.765Z,46.22
2022-09-23T07:26:44.899Z,45.50
2022-09-23T07:27:19.427Z,46.36
2022-09-23T07:27:50.966Z,46.32
2022-09-23T07:28:22.665Z,46.56
2022-09-23T07:29:04.497Z,47.26
2022-09-23T07:29:47.258Z,49.06
2022-09-23T07:30:25.120Z,49.93
2022-09-23T07:31:00.351Z,50.67
2022-09-23T07:31:39.081Z,50.70
2022-09-23T07:32:14.402Z,50.68
2022-09-23T07:32:48.954Z,51.15
2022-09-23T07:33:30.426Z,52.49
2022-09-23T07:34:03.953Z,52.10
2022-09-23T07:34:36.377Z,51.94
2022-09-23T07:35:08.741Z,51.71
2022-09-23T07:35:42.230Z,52.21
2022-09-23T07:36:19.584Z,52.26
2022-09-23T07:36:51.094Z,53.18
2022-09-23T07:37:22.589Z,54.32
2022-09-23T07:37:54.112Z,54.07
2022-09-23T07:38:30.110Z,54.34
2022-09-23T07:39:03.579Z,56.98
2022-09-23T07:39:36.699Z,54.78
2022-09-23T07:40:09.501Z,54.71
2022-09-23T07:40:41.105Z,54.43
2022-09-23T07:41:16.067Z,53.92